Time;durP1;ratioP1;P1;durP2;ratioP2;P2;SDS_P1;SDS_P2;PMS_P1;PMS_P2;Temp;Humidity;BMP_temperature;BMP_pressure;BME280_temperature;BME280_humidity;BME280_pressure;Samples;Min_cycle;Max_cycle;Signal;HPM_P1;HPM_P2
2022/08/16 00:00:04;;;;;;;18.77;16.95;;;23.20;99.90;;;;;;5028136;28;20037;-69
2022/08/16 00:02:32;;;;;;;18.15;16.40;;;23.20;99.90;;;;;;5026747;28;20653;-70
2022/08/16 00:04:57;;;;;;;18.42;16.60;;;23.20;99.90;;;;;;5021621;28;20062;-70
2022/08/16 00:07:23;;;;;;;19.20;17.30;;;23.20;99.90;;;;;;5030073;28;20147;-70
2022/08/16 00:09:48;;;;;;;18.80;16.95;;;23.20;99.90;;;;;;5028678;28;20036;-70
2022/08/16 00:12:14;;;;;;;18.92;17.23;;;23.20;99.90;;;;;;5028120;28;20072;-70
2022/08/16 00:14:40;;;;;;;17.58;15.98;;;23.20;99.90;;;;;;5027725;28;20045;-69
2022/08/16 00:17:05;;;;;;;18.42;16.70;;;23.20;99.90;;;;;;5025823;28;20405;-69
2022/08/16 00:19:33;;;;;;;19.80;18.00;;;23.10;99.90;;;;;;5029340;28;20048;-70
2022/08/16 00:21:59;;;;;;;19.90;17.83;;;23.10;99.90;;;;;;5030739;28;20079;-70
2022/08/16 00:24:26;;;;;;;18.98;17.15;;;23.10;99.90;;;;;;5024018;28;20119;-70
2022/08/16 00:26:52;;;;;;;;;;;23.10;99.90;;;;;;5028818;28;20053;-70
2022/08/16 00:29:18;;;;;;;20.77;16.40;;;23.00;99.90;;;;;;5028913;28;19924;-70
2022/08/16 00:31:46;;;;;;;18.75;16.85;;;23.00;99.90;;;;;;5024287;28;20643;-70
2022/08/16 00:34:13;;;;;;;18.58;16.83;;;23.00;99.90;;;;;;5028242;28;21002;-69
2022/08/16 00:36:38;;;;;;;18.43;16.43;;;23.00;99.90;;;;;;5026572;28;20543;-70
2022/08/16 00:39:04;;;;;;;18.15;16.65;;;23.00;99.90;;;;;;5026502;28;20074;-69
2022/08/16 00:41:32;;;;;;;18.55;16.75;;;22.90;99.90;;;;;;5030740;28;20045;-70
2022/08/16 00:44:02;;;;;;;19.35;17.38;;;22.90;99.90;;;;;;5025060;28;20816;-70
2022/08/16 00:46:56;;;;;;;20.10;18.30;;;22.90;99.90;;;;;;5028863;28;20690;-69
2022/08/16 00:49:23;;;;;;;22.42;19.48;;;22.90;99.90;;;;;;5017911;28;20046;-70
2022/08/16 00:51:50;;;;;;;21.88;19.60;;;22.80;99.90;;;;;;5030465;28;20405;-70
2022/08/16 00:54:17;;;;;;;22.67;20.58;;;22.80;99.90;;;;;;5028108;28;20493;-70
2022/08/16 00:56:46;;;;;;;23.67;21.48;;;22.70;99.90;;;;;;5024670;28;20132;-70
2022/08/16 00:59:14;;;;;;;23.25;21.00;;;22.70;99.90;;;;;;5027252;28;20095;-70
2022/08/16 01:01:41;;;;;;;24.25;21.98;;;22.60;99.90;;;;;;5027357;28;20053;-70
2022/08/16 01:04:08;;;;;;;24.15;21.95;;;22.60;99.90;;;;;;5026342;28;20519;-70
2022/08/16 01:06:35;;;;;;;23.05;20.73;;;22.60;99.90;;;;;;5026328;28;20049;-70
2022/08/16 01:09:05;;;;;;;23.23;21.15;;;22.60;99.90;;;;;;5026752;28;20045;-70
2022/08/16 01:11:32;;;;;;;22.75;20.65;;;22.60;99.90;;;;;;5024492;28;20041;-69
2022/08/16 01:14:17;;;;;;;22.50;20.30;;;22.60;99.90;;;;;;5028672;28;20073;-70
2022/08/16 01:16:45;;;;;;;22.05;19.95;;;22.60;99.90;;;;;;5023376;28;20443;-70
2022/08/16 01:19:25;;;;;;;23.08;20.63;;;22.60;99.90;;;;;;5027272;28;20116;-70
2022/08/16 01:21:51;;;;;;;21.83;19.95;;;22.60;99.90;;;;;;5026598;28;20069;-70
2022/08/16 01:24:38;;;;;;;23.45;21.20;;;22.60;99.90;;;;;;5028166;28;20091;-70
2022/08/16 01:27:12;;;;;;;22.05;19.88;;;22.60;99.90;;;;;;5037247;28;20046;-70
2022/08/16 01:29:54;;;;;;;21.35;19.45;;;22.60;99.90;;;;;;5026466;28;20112;-70
2022/08/16 01:32:19;;;;;;;22.92;20.70;;;22.60;99.90;;;;;;5021231;28;20049;-70
2022/08/16 01:34:45;;;;;;;22.88;20.67;;;22.60;99.90;;;;;;5017048;28;20083;-70
2022/08/16 01:37:12;;;;;;;25.05;22.63;;;22.60;99.90;;;;;;5029104;28;20451;-70
2022/08/16 01:39:38;;;;;;;;;;;22.60;99.90;;;;;;5028838;28;20044;-69
2022/08/16 01:42:07;;;;;;;25.80;23.17;;;22.60;99.90;;;;;;5028542;28;19921;-70
2022/08/16 01:44:34;;;;;;;26.02;23.42;;;22.60;99.90;;;;;;5028153;28;20042;-70
2022/08/16 01:46:59;;;;;;;24.45;22.13;;;22.60;99.90;;;;;;5026115;28;20049;-69
2022/08/16 01:49:45;;;;;;;25.08;22.77;;;22.60;99.90;;;;;;5027331;28;20129;-70
2022/08/16 01:52:13;;;;;;;24.97;22.77;;;22.70;99.90;;;;;;5022150;28;20057;-69
2022/08/16 01:54:39;;;;;;;24.52;22.23;;;22.70;99.90;;;;;;5025277;28;20829;-69
2022/08/16 01:57:07;;;;;;;25.58;22.90;;;22.70;99.90;;;;;;5020419;28;20041;-70
2022/08/16 01:59:34;;;;;;;24.17;21.67;;;22.70;99.90;;;;;;5028043;28;20156;-70
2022/08/16 02:02:00;;;;;;;26.00;23.08;;;22.70;99.90;;;;;;5024391;28;20076;-70
2022/08/16 02:04:27;;;;;;;24.27;21.98;;;22.70;99.90;;;;;;5023440;28;20515;-70
2022/08/16 02:06:53;;;;;;;25.35;22.75;;;22.70;99.90;;;;;;5027010;28;20504;-70
2022/08/16 02:09:22;;;;;;;25.50;22.83;;;22.70;99.90;;;;;;5024336;28;20046;-70
2022/08/16 02:11:56;;;;;;;27.17;23.65;;;22.70;99.90;;;;;;5028379;28;20046;-70
2022/08/16 02:14:27;;;;;;;26.48;24.00;;;22.60;99.90;;;;;;5021963;28;21302;-70
2022/08/16 02:16:56;;;;;;;24.83;22.58;;;22.60;99.90;;;;;;5024677;28;20557;-70
2022/08/16 02:19:22;;;;;;;25.92;23.60;;;22.60;99.90;;;;;;5023151;28;20424;-70
2022/08/16 02:21:51;;;;;;;24.55;22.33;;;22.60;99.90;;;;;;5029762;28;20049;-70
2022/08/16 02:24:17;;;;;;;25.10;22.83;;;22.60;99.90;;;;;;5024592;28;20041;-70
2022/08/16 02:26:43;;;;;;;26.02;23.27;;;22.50;99.90;;;;;;5026781;28;20053;-70
2022/08/16 02:29:09;;;;;;;25.08;22.70;;;22.50;99.90;;;;;;5024087;28;20216;-70
2022/08/16 02:31:35;;;;;;;26.23;23.77;;;22.40;99.90;;;;;;5024654;28;20180;-70
2022/08/16 02:34:01;;;;;;;25.35;22.92;;;22.40;99.90;;;;;;5021758;28;20540;-70
2022/08/16 02:36:27;;;;;;;26.58;23.88;;;22.30;99.90;;;;;;5024196;28;20120;-70
2022/08/16 02:38:53;;;;;;;28.23;23.60;;;22.30;99.90;;;;;;5018985;28;21252;-70
2022/08/16 02:41:19;;;;;;;27.90;25.13;;;22.30;99.90;;;;;;5027155;28;20041;-70
2022/08/16 02:43:45;;;;;;;27.90;25.17;;;22.30;99.90;;;;;;5025702;28;20511;-70
2022/08/16 02:46:11;;;;;;;26.20;23.90;;;22.30;99.90;;;;;;5018682;28;20408;-70
2022/08/16 02:48:38;;;;;;;27.58;25.08;;;22.20;99.90;;;;;;5024399;28;20053;-71
2022/08/16 02:51:05;;;;;;;26.77;24.20;;;22.20;99.90;;;;;;5026954;28;20123;-70
2022/08/16 02:53:32;;;;;;;27.58;24.88;;;22.20;99.90;;;;;;5027260;28;20045;-70
2022/08/16 02:55:58;;;;;;;27.55;24.83;;;22.20;99.90;;;;;;5024703;28;20041;-70
2022/08/16 02:58:24;;;;;;;26.92;24.38;;;22.10;99.90;;;;;;5026690;28;20373;-70
2022/08/16 03:00:50;;;;;;;27.50;24.70;;;22.10;99.90;;;;;;5024850;28;20075;-70
2022/08/16 03:03:17;;;;;;;26.23;23.83;;;22.10;99.90;;;;;;5027958;28;20061;-70
2022/08/16 03:05:43;;;;;;;28.42;25.80;;;22.10;99.90;;;;;;5024811;28;20041;-70
2022/08/16 03:08:09;;;;;;;25.75;23.23;;;22.10;99.90;;;;;;5025669;28;20550;-70
2022/08/16 03:10:35;;;;;;;26.10;23.67;;;22.10;99.90;;;;;;5022649;28;20060;-69
2022/08/16 03:13:01;;;;;;;25.40;23.13;;;22.00;99.90;;;;;;5025699;28;20049;-69
2022/08/16 03:15:27;;;;;;;26.40;23.92;;;22.00;99.90;;;;;;5021931;28;20061;-70
2022/08/16 03:17:53;;;;;;;26.50;24.00;;;22.10;99.90;;;;;;5025263;28;20041;-71
2022/08/16 03:20:18;;;;;;;26.25;23.83;;;22.10;99.90;;;;;;5019943;28;20042;-70
2022/08/16 03:22:44;;;;;;;26.38;23.75;;;22.10;99.90;;;;;;5027088;28;20464;-70
2022/08/16 03:25:12;;;;;;;28.42;25.73;;;22.00;99.90;;;;;;5021513;28;20049;-70
2022/08/16 03:27:39;;;;;;;26.60;24.25;;;22.00;99.90;;;;;;5024048;28;20041;-70
2022/08/16 03:30:16;;;;;;;27.10;24.40;;;22.00;99.90;;;;;;5024147;28;20072;-70
2022/08/16 03:32:42;;;;;;;26.85;24.20;;;22.00;99.90;;;;;;5027946;28;20396;-70
2022/08/16 03:35:08;;;;;;;27.83;25.10;;;21.90;99.90;;;;;;5024926;28;20122;-69
2022/08/16 03:37:34;;;;;;;26.65;24.15;;;21.90;99.90;;;;;;5025992;28;20394;-69
2022/08/16 03:40:00;;;;;;;27.40;24.73;;;21.90;99.90;;;;;;5023121;28;20052;-70
2022/08/16 03:42:26;;;;;;;27.67;25.05;;;21.80;99.90;;;;;;5025250;28;20124;-70
2022/08/16 03:44:51;;;;;;;26.30;23.92;;;21.80;99.90;;;;;;5024833;28;20258;-70
2022/08/16 03:47:17;;;;;;;28.05;25.38;;;21.80;99.90;;;;;;5022691;28;20108;-70
2022/08/16 03:49:43;;;;;;;27.40;24.83;;;21.80;99.90;;;;;;5027307;28;20396;-70
2022/08/16 03:52:09;;;;;;;25.77;23.27;;;21.80;99.90;;;;;;5024935;28;20041;-70
2022/08/16 03:54:35;;;;;;;25.13;22.77;;;21.80;99.90;;;;;;5025229;28;20443;-70
2022/08/16 03:57:02;;;;;;;26.58;24.13;;;21.80;99.90;;;;;;5025827;28;20045;-70
2022/08/16 03:59:28;;;;;;;25.52;22.98;;;21.80;99.90;;;;;;5021273;28;20398;-70
2022/08/16 04:01:54;;;;;;;26.85;24.10;;;21.70;99.90;;;;;;5025184;28;20099;-70
2022/08/16 04:04:19;;;;;;;26.63;24.08;;;21.70;99.90;;;;;;5024687;28;20057;-70
2022/08/16 04:06:45;;;;;;;28.10;25.13;;;21.70;99.90;;;;;;5025768;28;20060;-70
2022/08/16 04:09:11;;;;;;;27.33;24.73;;;21.70;99.90;;;;;;5026023;28;20048;-70
2022/08/16 04:11:37;;;;;;;26.23;23.83;;;21.60;99.90;;;;;;5022179;28;20057;-70
2022/08/16 04:14:03;;;;;;;27.50;24.80;;;21.60;99.90;;;;;;5023319;28;20038;-70
2022/08/16 04:16:31;;;;;;;26.98;24.38;;;21.60;99.90;;;;;;5024823;28;20092;-69
2022/08/16 04:18:56;;;;;;;26.60;24.02;;;21.60;99.90;;;;;;5018803;28;20651;-70
2022/08/16 04:21:22;;;;;;;26.75;24.30;;;21.60;99.90;;;;;;5019051;28;20041;-70
2022/08/16 04:23:48;;;;;;;27.88;25.25;;;21.50;99.90;;;;;;5013034;28;20373;-70
2022/08/16 04:26:13;;;;;;;27.30;24.55;;;21.50;99.90;;;;;;5026849;28;20378;-70
2022/08/16 04:28:39;;;;;;;27.10;24.50;;;21.50;99.90;;;;;;5023908;28;20077;-70
2022/08/16 04:31:05;;;;;;;28.17;25.00;;;21.50;99.90;;;;;;5024127;28;20046;-70
2022/08/16 04:33:31;;;;;;;26.85;24.15;;;21.50;99.90;;;;;;5029155;28;20084;-69
2022/08/16 04:35:57;;;;;;;27.50;24.90;;;21.40;99.90;;;;;;5026401;28;20091;-69
2022/08/16 04:38:23;;;;;;;27.33;24.75;;;21.40;99.90;;;;;;5031135;28;20057;-70
2022/08/16 04:40:49;;;;;;;27.27;24.60;;;21.40;99.90;;;;;;5027035;28;20076;-69
2022/08/16 04:43:15;;;;;;;26.48;23.88;;;21.30;99.90;;;;;;5020680;28;20088;-70
2022/08/16 04:45:41;;;;;;;28.33;25.55;;;21.30;99.90;;;;;;5027889;28;20041;-70
2022/08/16 04:48:09;;;;;;;27.05;24.40;;;21.30;99.90;;;;;;5028103;28;20037;-70
2022/08/16 04:50:35;;;;;;;;;;;21.20;99.90;;;;;;5032202;28;20056;-69
2022/08/16 04:53:01;;;;;;;28.00;25.23;;;21.20;99.90;;;;;;5014403;28;20462;-69
2022/08/16 04:55:28;;;;;;;27.97;25.27;;;21.10;99.90;;;;;;5029508;28;20048;-70
2022/08/16 04:57:55;;;;;;;27.42;24.88;;;21.20;99.90;;;;;;5043200;28;20048;-69
2022/08/16 05:00:31;;;;;;;27.30;24.80;;;21.20;99.90;;;;;;5027454;28;20052;-70
2022/08/16 05:02:58;;;;;;;28.80;25.92;;;21.10;99.90;;;;;;5024208;28;20068;-70
2022/08/16 05:05:23;;;;;;;27.77;25.07;;;21.10;99.90;;;;;;5028645;28;20132;-70
2022/08/16 05:07:49;;;;;;;27.40;24.75;;;21.10;99.90;;;;;;5030685;28;20384;-70
2022/08/16 05:10:16;;;;;;;27.85;25.13;;;21.10;99.90;;;;;;5014719;28;20439;-69
2022/08/16 05:12:42;;;;;;;27.97;25.13;;;21.10;99.90;;;;;;5030012;28;20045;-70
2022/08/16 05:15:08;;;;;;;26.92;24.42;;;21.10;99.90;;;;;;5026798;28;20337;-69
2022/08/16 05:17:34;;;;;;;26.58;24.05;;;21.10;99.90;;;;;;5031033;28;20071;-70
2022/08/16 05:20:00;;;;;;;27.23;24.63;;;21.10;99.90;;;;;;5027879;28;20056;-70
2022/08/16 05:22:26;;;;;;;27.50;24.42;;;21.20;99.90;;;;;;5031790;28;20041;-69
2022/08/16 05:24:52;;;;;;;27.00;24.20;;;21.20;99.90;;;;;;5042107;28;20075;-70
2022/08/16 05:27:18;;;;;;;27.47;24.83;;;21.20;99.90;;;;;;5027449;28;20041;-70
2022/08/16 05:29:44;;;;;;;26.38;23.67;;;21.30;99.90;;;;;;5024959;28;20484;-70
2022/08/16 05:32:09;;;;;;;26.65;24.15;;;21.30;99.90;;;;;;5021330;28;20072;-70
2022/08/16 05:34:35;;;;;;;27.40;24.80;;;21.30;99.90;;;;;;5024880;28;20103;-70
2022/08/16 05:37:01;;;;;;;27.48;24.83;;;21.40;99.90;;;;;;5027563;28;20384;-70
2022/08/16 05:39:27;;;;;;;27.08;24.48;;;21.40;99.90;;;;;;5025703;28;20075;-70
2022/08/16 05:41:53;;;;;;;26.98;24.17;;;21.40;99.90;;;;;;5025435;28;20083;-70
2022/08/16 05:44:22;;;;;;;26.88;24.10;;;21.40;99.90;;;;;;5027966;28;20053;-70
2022/08/16 05:46:49;;;;;;;27.30;24.58;;;21.50;99.90;;;;;;5024421;28;20038;-70
2022/08/16 05:49:15;;;;;;;28.25;24.83;;;21.50;99.90;;;;;;5026417;28;20087;-70
2022/08/16 05:51:43;;;;;;;28.13;25.13;;;21.50;99.90;;;;;;5025387;28;20041;-70
2022/08/16 05:54:10;;;;;;;26.33;23.85;;;21.50;99.90;;;;;;5027487;28;20037;-68
2022/08/16 05:56:36;;;;;;;27.15;24.67;;;21.60;99.90;;;;;;5025707;28;20037;-72
2022/08/16 05:59:03;;;;;;;27.27;24.55;;;21.60;99.90;;;;;;5022337;28;20042;-73
2022/08/16 06:01:28;;;;;;;24.27;21.98;;;21.70;99.90;;;;;;5019894;28;20045;-73
2022/08/16 06:03:54;;;;;;;25.42;22.92;;;21.70;99.90;;;;;;5023749;28;20045;-73
2022/08/16 06:06:20;;;;;;;25.73;23.23;;;21.80;99.90;;;;;;5023061;28;20128;-74
2022/08/16 06:08:46;;;;;;;25.58;23.08;;;21.90;99.90;;;;;;5024288;28;20111;-74
2022/08/16 06:11:11;;;;;;;23.63;21.42;;;21.90;99.90;;;;;;5022904;28;20033;-75
2022/08/16 06:13:38;;;;;;;24.58;22.17;;;22.00;99.90;;;;;;5024850;28;20603;-74
2022/08/16 06:16:06;;;;;;;23.73;21.33;;;22.10;99.90;;;;;;5020973;28;20132;-75
2022/08/16 06:18:32;;;;;;;23.90;21.63;;;22.20;99.90;;;;;;5017393;28;20275;-74
2022/08/16 06:20:58;;;;;;;24.45;22.13;;;22.30;99.90;;;;;;5019435;28;20060;-73
2022/08/16 06:23:25;;;;;;;24.55;22.25;;;22.30;99.90;;;;;;5027880;28;20469;-73
2022/08/16 06:25:52;;;;;;;25.55;23.23;;;22.40;99.90;;;;;;5022320;28;20041;-74
2022/08/16 06:28:18;;;;;;;;;;;22.40;99.90;;;;;;5021600;28;20049;-73
2022/08/16 06:30:45;;;;;;;25.00;22.65;;;22.50;99.90;;;;;;5021954;28;19982;-73
2022/08/16 06:33:16;;;;;;;25.20;22.80;;;22.60;99.90;;;;;;5026248;28;20076;-73
2022/08/16 06:35:42;;;;;;;24.25;22.00;;;22.80;99.90;;;;;;5021420;28;20530;-74
2022/08/16 06:38:08;;;;;;;24.30;21.90;;;22.90;99.90;;;;;;5024899;28;20041;-73
2022/08/16 06:40:37;;;;;;;23.58;21.35;;;23.00;99.90;;;;;;5024128;28;20093;-74
2022/08/16 06:43:02;;;;;;;20.40;18.33;;;23.20;99.90;;;;;;5018141;28;20128;-73
2022/08/16 06:45:28;;;;;;;19.20;17.23;;;23.30;99.90;;;;;;5025493;28;20489;-74
2022/08/16 06:47:54;;;;;;;19.88;17.98;;;23.40;99.90;;;;;;5024247;28;20090;-73
2022/08/16 06:50:20;;;;;;;20.33;18.20;;;23.50;99.90;;;;;;5022232;28;20128;-73
2022/08/16 06:52:46;;;;;;;19.30;17.27;;;23.50;99.90;;;;;;5025307;28;20075;-73
2022/08/16 06:55:13;;;;;;;19.00;17.13;;;23.60;99.90;;;;;;5016296;28;20085;-74
2022/08/16 06:57:40;;;;;;;18.95;17.00;;;23.60;99.90;;;;;;5019234;28;20124;-73
2022/08/16 07:00:12;;;;;;;18.10;16.40;;;23.70;99.90;;;;;;5025010;28;20034;-73
2022/08/16 07:02:40;;;;;;;19.48;16.15;;;23.60;99.90;;;;;;5026459;28;20045;-73
2022/08/16 07:05:07;;;;;;;18.63;16.73;;;23.70;99.90;;;;;;5023120;28;20091;-78
2022/08/16 07:07:33;;;;;;;17.95;16.20;;;23.70;99.90;;;;;;5019889;28;20481;-78
2022/08/16 07:09:59;;;;;;;18.83;16.83;;;23.70;99.90;;;;;;5021329;28;20416;-77
2022/08/16 07:12:25;;;;;;;16.83;14.85;;;23.70;99.90;;;;;;5021877;28;20056;-78
2022/08/16 07:14:51;;;;;;;18.25;16.45;;;23.70;99.90;;;;;;5020610;28;20099;-78
2022/08/16 07:17:18;;;;;;;17.77;15.98;;;23.80;99.90;;;;;;5014323;28;20579;-78
2022/08/16 07:19:44;;;;;;;18.30;16.40;;;23.80;99.90;;;;;;5028435;28;20038;-78
2022/08/16 07:22:09;;;;;;;18.23;16.33;;;23.90;99.90;;;;;;5026596;28;20102;-79
2022/08/16 07:24:35;;;;;;;19.17;16.98;;;24.00;99.90;;;;;;5026717;28;20046;-78
2022/08/16 07:27:01;;;;;;;19.05;17.02;;;24.00;99.90;;;;;;5024658;28;20049;-77
2022/08/16 07:29:28;;;;;;;19.33;17.33;;;24.00;99.90;;;;;;5027513;28;20068;-78
2022/08/16 07:31:54;;;;;;;17.92;16.23;;;24.10;99.90;;;;;;5027011;28;20484;-77
2022/08/16 07:34:20;;;;;;;18.10;16.27;;;24.10;99.90;;;;;;5023169;28;20047;-76
2022/08/16 07:36:45;;;;;;;17.50;15.53;;;24.20;99.90;;;;;;5025094;28;20045;-78
2022/08/16 07:39:12;;;;;;;18.38;16.58;;;24.20;99.90;;;;;;5024066;28;20674;-78
2022/08/16 07:41:38;;;;;;;17.20;15.50;;;24.30;99.90;;;;;;5025066;28;20756;-79
2022/08/16 07:44:04;;;;;;;17.55;15.20;;;24.40;99.90;;;;;;5023749;28;20112;-78
2022/08/16 07:46:30;;;;;;;16.90;15.20;;;24.40;99.90;;;;;;5022349;28;20464;-78
2022/08/16 07:48:56;;;;;;;18.40;16.20;;;24.50;99.90;;;;;;5021613;28;20038;-76
2022/08/16 07:51:22;;;;;;;17.77;16.17;;;24.60;99.90;;;;;;5019556;28;20139;-75
2022/08/16 07:53:50;;;;;;;17.75;15.90;;;24.60;99.90;;;;;;5021728;28;20041;-75
2022/08/16 07:56:19;;;;;;;18.80;15.90;;;24.70;99.90;;;;;;5020813;28;20516;-75
2022/08/16 07:58:45;;;;;;;18.90;17.10;;;24.80;99.90;;;;;;5024451;28;20068;-76
2022/08/16 08:01:12;;;;;;;17.60;15.90;;;24.80;99.90;;;;;;5025572;28;20116;-74
2022/08/16 08:03:39;;;;;;;17.95;16.30;;;24.90;99.90;;;;;;5020182;28;20141;-74
2022/08/16 08:06:05;;;;;;;19.80;17.90;;;25.00;99.90;;;;;;5029486;28;20041;-73
2022/08/16 08:08:31;;;;;;;20.25;18.30;;;25.00;99.90;;;;;;5029575;28;20033;-73
2022/08/16 08:10:58;;;;;;;21.43;17.60;;;25.10;99.90;;;;;;5029093;28;20088;-72
2022/08/16 08:13:23;;;;;;;21.63;19.45;;;25.10;99.90;;;;;;5032488;28;20358;-72
2022/08/16 08:15:49;;;;;;;22.17;20.13;;;25.10;99.90;;;;;;5029356;28;20046;-73
2022/08/16 08:18:15;;;;;;;22.23;20.13;;;25.10;99.90;;;;;;5029327;28;20048;-73
2022/08/16 08:20:43;;;;;;;21.42;19.20;;;25.10;99.90;;;;;;5030912;28;20128;-73
2022/08/16 08:23:12;;;;;;;21.02;18.85;;;25.10;99.90;;;;;;5030174;28;20457;-73
2022/08/16 08:25:39;;;;;;;19.92;18.02;;;25.20;99.90;;;;;;5029546;28;20092;-73
2022/08/16 08:28:05;;;;;;;;;;;25.30;99.90;;;;;;5029605;28;20457;-73
2022/08/16 08:30:32;;;;;;;21.70;19.40;;;25.30;99.90;;;;;;5028941;28;19921;-73
2022/08/16 08:32:58;;;;;;;19.35;17.25;;;25.30;99.90;;;;;;5026906;28;20092;-73
2022/08/16 08:35:24;;;;;;;20.20;18.10;;;25.40;99.90;;;;;;5028080;28;20045;-73
2022/08/16 08:37:50;;;;;;;20.60;18.27;;;25.50;99.90;;;;;;5027992;28;20037;-73
2022/08/16 08:40:17;;;;;;;23.63;17.25;;;25.60;99.90;;;;;;5027982;28;20049;-72
2022/08/16 08:42:44;;;;;;;19.27;17.15;;;25.60;99.90;;;;;;5027992;28;20051;-73
2022/08/16 08:45:11;;;;;;;23.55;18.50;;;25.70;99.90;;;;;;5031197;28;20128;-72
2022/08/16 08:47:37;;;;;;;;;;;25.70;99.90;;;;;;5026375;28;20576;-71
2022/08/16 08:50:04;;;;;;;17.63;15.83;;;25.80;99.90;;;;;;5030575;28;19964;-71
2022/08/16 08:52:30;;;;;;;19.55;17.67;;;25.80;99.90;;;;;;5031341;28;20084;-71
2022/08/16 08:54:56;;;;;;;19.38;17.40;;;25.90;99.90;;;;;;5029344;28;20138;-71
2022/08/16 08:57:21;;;;;;;19.55;17.65;;;26.00;99.90;;;;;;5030710;28;20099;-71
2022/08/16 08:59:47;;;;;;;18.15;16.23;;;26.00;99.90;;;;;;5034020;28;20509;-70
2022/08/16 09:02:15;;;;;;;17.80;16.20;;;26.00;99.90;;;;;;5028412;28;20057;-71
2022/08/16 09:04:44;;;;;;;15.32;13.73;;;26.10;99.90;;;;;;5024879;28;20046;-71
2022/08/16 09:07:10;;;;;;;14.43;12.95;;;26.10;99.90;;;;;;5038735;28;20797;-71
2022/08/16 09:09:37;;;;;;;14.65;13.15;;;26.10;99.90;;;;;;5029346;28;20447;-74
2022/08/16 09:12:04;;;;;;;13.07;11.77;;;26.10;99.40;;;;;;5025751;28;20080;-70
2022/08/16 09:14:30;;;;;;;;;;;26.10;99.80;;;;;;5024662;28;20053;-73
2022/08/16 09:16:56;;;;;;;14.00;10.43;;;26.20;99.90;;;;;;5021521;28;19921;-75
2022/08/16 09:19:21;;;;;;;12.85;10.32;;;26.20;99.40;;;;;;5029040;28;20385;-74
2022/08/16 09:21:49;;;;;;;12.30;10.98;;;26.30;98.70;;;;;;5030645;28;20081;-72
2022/08/16 09:24:16;;;;;;;14.50;12.90;;;26.40;98.10;;;;;;5027965;28;20045;-73
2022/08/16 09:26:41;;;;;;;;;;;26.40;97.80;;;;;;5030973;28;20045;-75
2022/08/16 09:29:07;;;;;;;12.00;10.67;;;26.40;97.00;;;;;;5029734;28;20016;-73
2022/08/16 09:31:33;;;;;;;12.90;11.32;;;26.50;99.10;;;;;;5027870;28;20463;-74
2022/08/16 09:34:00;;;;;;;11.63;10.45;;;26.50;98.60;;;;;;5024869;28;20061;-74
2022/08/16 09:36:28;;;;;;;13.05;11.73;;;26.60;97.80;;;;;;5025073;28;20044;-73
2022/08/16 09:38:54;;;;;;;14.43;12.27;;;26.80;97.20;;;;;;5023963;28;20054;-71
2022/08/16 09:41:20;;;;;;;14.60;12.07;;;26.80;96.40;;;;;;5027482;28;20045;-72
2022/08/16 09:43:46;;;;;;;13.57;11.63;;;26.90;97.10;;;;;;5027442;28;20045;-72
2022/08/16 09:46:12;;;;;;;12.43;11.23;;;26.90;97.10;;;;;;5029518;28;20049;-72
2022/08/16 09:48:40;;;;;;;13.85;10.57;;;27.00;96.80;;;;;;5030858;28;20056;-72
2022/08/16 09:51:10;;;;;;;11.55;10.15;;;27.10;95.70;;;;;;5028892;28;20449;-72
2022/08/16 09:53:36;;;;;;;13.10;9.88;;;27.10;95.80;;;;;;5026934;28;20161;-73
2022/08/16 09:56:07;;;;;;;14.73;11.02;;;27.20;95.80;;;;;;5027942;28;20045;-74
2022/08/16 09:58:32;;;;;;;13.90;11.73;;;27.30;96.30;;;;;;5027372;28;20077;-72
2022/08/16 10:00:58;;;;;;;12.07;10.82;;;27.40;95.60;;;;;;5026014;28;20124;-72
2022/08/16 10:03:23;;;;;;;13.93;11.70;;;27.40;95.00;;;;;;5031697;28;20041;-74
2022/08/16 10:05:49;;;;;;;13.60;11.80;;;27.50;91.40;;;;;;5020771;28;20041;-74
2022/08/16 10:08:15;;;;;;;11.37;10.13;;;27.50;91.70;;;;;;5022685;28;20041;-74
2022/08/16 10:13:10;;;;;;;11.40;10.20;;;27.50;94.10;;;;;;5028314;28;20034;-74
2022/08/16 10:13:29;;;;;;;12.82;9.63;;;27.50;92.00;;;;;;5023101;28;20437;-74
2022/08/16 10:15:58;;;;;;;11.05;9.30;;;27.60;92.60;;;;;;5015250;28;20060;-74
2022/08/16 10:18:28;;;;;;;10.10;8.90;;;27.70;92.90;;;;;;5022965;28;20112;-74
2022/08/16 10:20:57;;;;;;;12.80;11.50;;;27.80;90.20;;;;;;5031761;28;20481;-74
2022/08/16 10:23:23;;;;;;;12.02;8.48;;;27.80;90.50;;;;;;5027974;28;20478;-74
2022/08/16 10:25:49;;;;;;;9.50;7.20;;;27.90;86.80;;;;;;5032383;28;20080;-75
2022/08/16 10:28:15;;;;;;;10.37;6.87;;;27.90;82.70;;;;;;5024990;28;20460;-74
2022/08/16 10:30:42;;;;;;;8.50;7.70;;;28.00;85.60;;;;;;5029224;28;20061;-75
2022/08/16 10:33:12;;;;;;;8.90;7.90;;;28.00;82.40;;;;;;5026851;28;20358;-76
2022/08/16 10:35:39;;;;;;;8.35;7.55;;;28.10;77.70;;;;;;5027535;28;20060;-75
2022/08/16 10:38:05;;;;;;;8.60;7.60;;;28.10;74.50;;;;;;5024591;28;20116;-74
2022/08/16 10:40:30;;;;;;;7.43;6.23;;;28.20;72.90;;;;;;5028583;28;20133;-76
2022/08/16 10:42:58;;;;;;;8.23;4.67;;;28.20;70.00;;;;;;5026775;28;20047;-74
2022/08/16 10:45:24;;;;;;;7.65;5.20;;;28.20;63.80;;;;;;5025580;28;20099;-74
2022/08/16 10:47:50;;;;;;;7.63;6.17;;;28.20;59.90;;;;;;5025749;28;20089;-73
2022/08/16 10:50:16;;;;;;;6.93;5.70;;;28.20;62.80;;;;;;5025379;28;20049;-75
2022/08/16 10:52:42;;;;;;;7.03;5.07;;;28.30;64.60;;;;;;5030201;28;20038;-74
2022/08/16 10:55:10;;;;;;;5.30;4.80;;;28.40;61.70;;;;;;5020229;28;20095;-72
2022/08/16 10:57:36;;;;;;;5.88;5.28;;;28.40;60.00;;;;;;5014866;28;20046;-73
2022/08/16 11:00:08;;;;;;;7.33;5.37;;;28.50;61.10;;;;;;5024129;28;20398;-74
2022/08/16 11:02:34;;;;;;;7.40;5.65;;;28.60;59.70;;;;;;5026790;28;20062;-74
2022/08/16 11:04:59;;;;;;;6.77;6.07;;;28.60;60.90;;;;;;5026677;28;20053;-73
2022/08/16 11:07:25;;;;;;;11.43;6.40;;;28.70;61.00;;;;;;5027965;28;20049;-74
2022/08/16 11:09:51;;;;;;;8.90;6.53;;;28.80;60.40;;;;;;5024629;28;20038;-75
2022/08/16 11:12:16;;;;;;;6.87;5.57;;;28.80;62.00;;;;;;5028775;28;20098;-73
2022/08/16 11:14:42;;;;;;;6.67;5.17;;;28.90;59.60;;;;;;5027173;28;20358;-74
2022/08/16 11:17:09;;;;;;;7.83;5.03;;;28.90;59.00;;;;;;5026508;28;20065;-75
2022/08/16 11:19:35;;;;;;;7.20;5.45;;;28.90;57.00;;;;;;5029048;28;20060;-73
2022/08/16 11:22:01;;;;;;;7.47;6.38;;;29.00;56.70;;;;;;5025900;28;20123;-75
2022/08/16 11:24:27;;;;;;;7.20;6.50;;;29.00;57.50;;;;;;5021374;28;20099;-74
2022/08/16 11:26:53;;;;;;;8.25;6.88;;;29.00;56.70;;;;;;5027601;28;20090;-74
2022/08/16 11:29:19;;;;;;;8.60;6.00;;;29.00;56.20;;;;;;5029372;28;20145;-76
2022/08/16 11:31:46;;;;;;;10.35;6.13;;;29.00;56.30;;;;;;5021934;28;20800;-75
2022/08/16 11:34:15;;;;;;;7.20;6.20;;;29.00;56.70;;;;;;5028826;28;20052;-75
2022/08/16 11:36:41;;;;;;;6.40;5.75;;;29.00;56.30;;;;;;5024779;28;20475;-73
2022/08/16 11:39:06;;;;;;;8.40;5.90;;;29.10;56.00;;;;;;5016420;28;20041;-77
2022/08/16 11:41:34;;;;;;;11.27;6.30;;;29.20;56.20;;;;;;5020971;28;20377;-75
2022/08/16 11:44:01;;;;;;;7.05;5.68;;;29.30;55.30;;;;;;5023777;28;20400;-74
2022/08/16 11:46:27;;;;;;;6.68;4.35;;;29.40;55.30;;;;;;5026766;28;20416;-73
2022/08/16 11:48:54;;;;;;;7.60;5.30;;;29.40;53.00;;;;;;5022684;28;20033;-74
2022/08/16 11:51:20;;;;;;;6.88;5.47;;;29.50;52.00;;;;;;5026530;28;20048;-74
2022/08/16 11:53:46;;;;;;;9.27;5.00;;;29.60;52.50;;;;;;5021022;28;20041;-74
2022/08/16 11:56:11;;;;;;;7.00;5.17;;;29.60;53.00;;;;;;5025285;28;20045;-74
2022/08/16 11:58:38;;;;;;;5.10;4.60;;;29.70;51.90;;;;;;5021395;28;20041;-77
2022/08/16 12:01:05;;;;;;;8.85;5.25;;;29.70;50.90;;;;;;5022527;28;20042;-76
2022/08/16 12:03:32;;;;;;;6.93;5.18;;;29.70;51.30;;;;;;5026507;28;20060;-76
2022/08/16 12:06:01;;;;;;;6.65;5.15;;;29.80;51.30;;;;;;5026983;28;20516;-77
2022/08/16 12:08:29;;;;;;;8.35;6.00;;;29.90;50.80;;;;;;5026854;28;20481;-76
2022/08/16 12:10:55;;;;;;;8.32;6.10;;;30.00;51.60;;;;;;5026048;28;20064;-76
2022/08/16 12:13:20;;;;;;;7.72;6.22;;;30.10;52.30;;;;;;5022914;28;20041;-76
2022/08/16 12:15:46;;;;;;;6.33;5.57;;;30.20;52.10;;;;;;5024437;28;20049;-76
2022/08/16 12:18:12;;;;;;;6.07;4.70;;;30.20;51.30;;;;;;5019516;28;20037;-73
2022/08/16 12:20:40;;;;;;;9.80;4.10;;;30.20;49.60;;;;;;5023165;28;20046;-74
2022/08/16 12:23:06;;;;;;;6.63;4.15;;;30.20;47.50;;;;;;5022089;28;20045;-74
2022/08/16 12:25:34;;;;;;;7.80;4.20;;;30.20;47.60;;;;;;5025254;28;20041;-74
2022/08/16 12:27:59;;;;;;;5.07;4.20;;;30.20;47.80;;;;;;5024958;28;20034;-74
2022/08/16 12:30:28;;;;;;;5.47;4.07;;;30.30;47.30;;;;;;5027445;28;20044;-74